createdAt,value
2023-05-05T00:00:46.881Z,12.30
2023-05-05T00:01:46.927Z,11.10
2023-05-05T00:02:47.308Z,10.70
2023-05-05T00:04:02.520Z,9.80
2023-05-05T00:04:46.837Z,10.20
2023-05-05T00:05:47.723Z,11.30
2023-05-05T00:06:46.846Z,11.00
2023-05-05T00:07:51.320Z,10.00
2023-05-05T00:08:46.803Z,10.50
2023-05-05T00:09:46.791Z,13.50
2023-05-05T00:10:46.776Z,10.60
2023-05-05T00:11:46.795Z,11.60
2023-05-05T00:12:47.205Z,8.20
2023-05-05T00:13:46.787Z,12.40
2023-05-05T00:14:46.752Z,8.90
2023-05-05T00:15:47.500Z,9.40
2023-05-05T00:16:46.734Z,10.30
2023-05-05T00:17:46.753Z,10.80
2023-05-05T00:18:46.978Z,10.60
2023-05-05T00:19:46.712Z,7.60
2023-05-05T00:20:47.693Z,12.30
2023-05-05T00:21:46.676Z,11.50
2023-05-05T00:22:47.672Z,11.50
2023-05-05T00:23:46.735Z,10.70
2023-05-05T00:24:46.684Z,10.00
2023-05-05T00:25:46.638Z,14.40
2023-05-05T00:26:46.628Z,9.00
2023-05-05T00:27:46.909Z,9.20
2023-05-05T00:28:46.649Z,9.10
2023-05-05T00:29:46.625Z,9.70
2023-05-05T00:30:46.673Z,9.00
2023-05-05T00:31:47.392Z,9.80
2023-05-05T00:32:46.653Z,11.40
2023-05-05T00:33:46.561Z,11.80
2023-05-05T00:34:46.556Z,10.70
2023-05-05T00:35:46.527Z,10.80
2023-05-05T00:36:46.491Z,9.40
2023-05-05T00:37:46.513Z,9.50
2023-05-05T00:38:46.733Z,12.10
2023-05-05T00:39:46.512Z,14.10
2023-05-05T00:40:46.524Z,13.70
2023-05-05T00:41:46.532Z,13.40
2023-05-05T00:42:46.652Z,10.80
2023-05-05T00:43:46.737Z,14.10
2023-05-05T00:44:47.303Z,10.90
2023-05-05T00:45:46.497Z,11.40
2023-05-05T00:46:46.506Z,14.80
2023-05-05T00:47:46.426Z,11.30
2023-05-05T00:48:46.396Z,11.60
2023-05-05T00:49:46.422Z,13.70
2023-05-05T00:50:46.412Z,11.20
2023-05-05T00:51:46.412Z,13.80
2023-05-05T00:52:46.396Z,11.50
2023-05-05T00:53:46.349Z,13.60
2023-05-05T00:54:46.324Z,13.60
2023-05-05T00:55:46.374Z,10.80
2023-05-05T00:56:46.354Z,13.00
2023-05-05T00:57:46.614Z,15.60
2023-05-05T00:58:46.315Z,9.70
2023-05-05T00:59:46.548Z,9.40
2023-05-05T01:00:46.284Z,10.90
2023-05-05T01:01:46.416Z,10.90
2023-05-05T01:02:46.364Z,12.80
2023-05-05T01:03:46.285Z,10.70
2023-05-05T01:04:46.240Z,11.80
2023-05-05T01:05:46.199Z,9.10
2023-05-05T01:06:46.270Z,9.30
2023-05-05T01:07:46.450Z,10.70
2023-05-05T01:08:46.208Z,10.70
2023-05-05T01:09:46.431Z,9.70
2023-05-05T01:10:46.936Z,17.30
2023-05-05T01:11:46.447Z,12.60
2023-05-05T01:12:46.178Z,13.30
2023-05-05T01:13:46.125Z,9.30
2023-05-05T01:14:46.371Z,13.50
2023-05-05T01:15:53.761Z,12.30
2023-05-05T01:16:46.123Z,10.00
2023-05-05T01:17:46.126Z,13.40
2023-05-05T01:18:46.074Z,12.70
2023-05-05T01:19:46.104Z,13.40
2023-05-05T01:20:46.119Z,17.40
2023-05-05T01:21:46.066Z,13.10
2023-05-05T01:22:46.930Z,12.40
2023-05-05T01:23:46.289Z,13.70
2023-05-05T01:24:46.264Z,11.50
2023-05-05T01:25:46.003Z,11.80
2023-05-05T01:26:46.033Z,11.20
2023-05-05T01:27:45.999Z,11.20
2023-05-05T01:28:45.998Z,11.20
2023-05-05T01:29:46.720Z,12.00
2023-05-05T01:30:46.001Z,11.80
2023-05-05T01:31:46.205Z,11.60
2023-05-05T01:32:46.267Z,11.30
2023-05-05T01:33:49.554Z,10.60
2023-05-05T01:34:45.942Z,9.30
2023-05-05T01:35:45.910Z,10.40
2023-05-05T01:36:45.903Z,10.00
2023-05-05T01:37:47.778Z,9.80
2023-05-05T01:38:45.890Z,9.70
2023-05-05T01:39:45.877Z,11.90
2023-05-05T01:40:46.095Z,11.70
2023-05-05T01:41:45.845Z,13.40
2023-05-05T01:42:45.862Z,13.40
2023-05-05T01:43:45.847Z,13.60
2023-05-05T01:44:45.834Z,13.80
2023-05-05T01:45:45.868Z,14.20
2023-05-05T01:46:46.041Z,12.80
2023-05-05T01:47:45.797Z,12.80
2023-05-05T01:48:45.784Z,14.80
2023-05-05T01:49:47.133Z,12.60
2023-05-05T01:50:45.743Z,13.30
2023-05-05T01:52:49.938Z,12.00
2023-05-05T01:52:55.679Z,15.80
2023-05-05T01:53:55.358Z,13.20
2023-05-05T01:54:55.415Z,14.90
2023-05-05T01:55:55.405Z,13.70
2023-05-05T01:56:55.441Z,13.60
2023-05-05T01:57:55.390Z,14.60
2023-05-05T01:58:56.140Z,12.20
2023-05-05T01:59:55.350Z,12.70
2023-05-05T02:00:55.683Z,14.10
2023-05-05T02:01:55.513Z,11.30
2023-05-05T02:02:55.367Z,12.20
2023-05-05T02:03:55.306Z,11.50
2023-05-05T02:04:55.305Z,11.40
2023-05-05T02:05:57.075Z,11.50
2023-05-05T02:06:55.266Z,11.10
2023-05-05T02:07:55.483Z,14.30
2023-05-05T02:08:55.254Z,13.40
2023-05-05T02:09:55.234Z,14.80
2023-05-05T02:10:55.232Z,12.60
2023-05-05T02:11:55.198Z,16.90
2023-05-05T02:12:55.241Z,12.50
2023-05-05T02:13:55.176Z,13.00
2023-05-05T02:14:55.254Z,10.50
2023-05-05T02:15:55.417Z,9.90
2023-05-05T02:16:55.138Z,11.40
2023-05-05T02:17:55.190Z,15.40
2023-05-05T02:18:55.173Z,12.30
2023-05-05T02:19:55.913Z,15.00
2023-05-05T02:20:55.109Z,12.00
2023-05-05T02:21:55.175Z,14.10
2023-05-05T02:22:55.100Z,11.90
2023-05-05T02:23:55.727Z,14.30
2023-05-05T02:24:55.083Z,14.10
2023-05-05T02:25:55.100Z,15.00
2023-05-05T02:26:55.104Z,15.00
2023-05-05T02:27:55.050Z,17.80
2023-05-05T02:28:55.029Z,17.40
2023-05-05T02:29:55.549Z,14.70
2023-05-05T02:30:55.059Z,13.20
2023-05-05T02:31:55.421Z,15.30
2023-05-05T02:32:55.101Z,11.60
2023-05-05T02:33:55.364Z,12.40
2023-05-05T02:34:54.987Z,12.10
2023-05-05T02:35:54.923Z,11.70
2023-05-05T02:36:54.993Z,12.30
2023-05-05T02:37:54.941Z,11.40
2023-05-05T02:38:54.935Z,14.10
2023-05-05T02:39:55.010Z,11.10
2023-05-05T02:40:55.195Z,13.10
2023-05-05T02:41:54.860Z,15.30
2023-05-05T02:42:55.269Z,13.50
2023-05-05T02:43:54.869Z,13.20
2023-05-05T02:44:54.869Z,12.80
2023-05-05T02:46:02.853Z,11.40
2023-05-05T02:46:55.100Z,14.20
2023-05-05T02:47:54.898Z,13.30
2023-05-05T02:48:55.562Z,16.50
2023-05-05T02:49:54.833Z,13.00
2023-05-05T02:50:54.812Z,12.90
2023-05-05T02:51:54.793Z,12.30
2023-05-05T02:52:54.782Z,15.10
2023-05-05T02:53:54.859Z,12.90
2023-05-05T02:54:56.636Z,15.20
2023-05-05T02:55:54.738Z,13.90
2023-05-05T02:56:54.770Z,14.00
2023-05-05T02:57:54.716Z,13.50
2023-05-05T02:58:54.705Z,14.90
2023-05-05T02:59:54.660Z,12.30
2023-05-05T03:00:54.704Z,11.70
2023-05-05T03:01:54.766Z,13.70
2023-05-05T03:02:54.811Z,14.80
2023-05-05T03:03:54.742Z,11.00
2023-05-05T03:04:54.651Z,10.50
2023-05-05T03:05:54.658Z,13.50
2023-05-05T03:06:54.687Z,14.00
2023-05-05T03:07:54.580Z,14.50
2023-05-05T03:08:54.645Z,12.20
2023-05-05T03:09:54.651Z,12.00
2023-05-05T03:10:54.591Z,12.60
2023-05-05T03:11:54.563Z,15.20
2023-05-05T03:12:54.584Z,13.10
2023-05-05T03:13:55.301Z,14.30
2023-05-05T03:14:54.531Z,13.00
2023-05-05T03:15:54.572Z,13.80
2023-05-05T03:16:54.799Z,15.50
2023-05-05T03:17:54.498Z,14.20
2023-05-05T03:18:54.505Z,15.50
2023-05-05T03:19:54.535Z,15.10
2023-05-05T03:20:54.748Z,13.40
2023-05-05T03:21:54.430Z,15.90
2023-05-05T03:22:54.712Z,14.90
2023-05-05T03:23:54.464Z,15.40
2023-05-05T03:24:54.436Z,16.40
2023-05-05T03:25:54.419Z,16.20
2023-05-05T03:26:54.394Z,14.70
2023-05-05T03:27:54.344Z,15.20
2023-05-05T03:28:54.760Z,12.40
2023-05-05T03:29:54.298Z,15.70
2023-05-05T03:30:54.346Z,14.20
2023-05-05T03:31:54.372Z,14.10
2023-05-05T03:32:54.333Z,15.70
2023-05-05T03:33:54.494Z,16.80
2023-05-05T03:34:54.265Z,15.70
2023-05-05T03:35:54.262Z,16.30
2023-05-05T03:36:54.490Z,15.20
2023-05-05T03:37:54.214Z,14.30
2023-05-05T03:38:54.464Z,15.80
2023-05-05T03:39:54.238Z,15.50
2023-05-05T03:40:54.475Z,14.80
2023-05-05T03:41:54.180Z,16.20
2023-05-05T03:42:54.408Z,15.80
2023-05-05T03:43:54.150Z,14.80
2023-05-05T03:44:54.206Z,16.60
2023-05-05T03:46:01.693Z,18.10
2023-05-05T03:46:54.128Z,16.20
2023-05-05T03:47:54.410Z,16.50
2023-05-05T03:48:54.139Z,20.20
2023-05-05T03:49:54.077Z,18.20
2023-05-05T03:50:54.092Z,20.70
2023-05-05T03:51:54.459Z,14.80
2023-05-05T03:52:54.072Z,15.20
2023-05-05T03:53:57.803Z,17.40
2023-05-05T03:54:54.025Z,18.30
2023-05-05T03:55:55.731Z,18.20
2023-05-05T03:56:54.051Z,15.90
2023-05-05T03:57:54.295Z,16.70
2023-05-05T03:58:54.027Z,17.40
2023-05-05T03:59:54.784Z,16.00
2023-05-05T04:00:54.016Z,16.30
2023-05-05T04:01:57.655Z,17.00
2023-05-05T04:02:54.043Z,18.10
2023-05-05T04:03:54.255Z,17.10
2023-05-05T04:04:53.945Z,17.60
2023-05-05T04:05:53.964Z,16.80
2023-05-05T04:06:53.939Z,17.90
2023-05-05T04:07:54.164Z,18.10
2023-05-05T04:08:53.964Z,17.70
2023-05-05T04:09:53.898Z,18.70
2023-05-05T04:10:53.907Z,20.70
2023-05-05T04:11:53.856Z,17.80
2023-05-05T04:12:54.680Z,18.00
2023-05-05T04:13:53.851Z,16.40
2023-05-05T04:14:55.577Z,18.30
2023-05-05T04:15:54.090Z,17.90
2023-05-05T04:16:53.886Z,16.50
2023-05-05T04:17:53.907Z,16.80
2023-05-05T04:18:53.810Z,17.40
2023-05-05T04:19:54.370Z,16.70
2023-05-05T04:20:53.811Z,18.40
2023-05-05T04:21:53.757Z,25.00
2023-05-05T04:22:54.295Z,18.80
2023-05-05T04:23:53.802Z,17.50
2023-05-05T04:24:53.710Z,20.60
2023-05-05T04:25:53.720Z,21.50
2023-05-05T04:26:53.703Z,24.50
2023-05-05T04:27:53.921Z,21.40
2023-05-05T04:28:55.673Z,24.30
2023-05-05T04:29:53.684Z,23.80
2023-05-05T04:30:53.751Z,23.00
2023-05-05T04:31:53.712Z,20.80
2023-05-05T04:32:53.777Z,21.70
2023-05-05T04:33:53.869Z,17.50
2023-05-05T04:34:53.643Z,18.30
2023-05-05T04:35:53.619Z,17.40
2023-05-05T04:36:53.635Z,21.30
2023-05-05T04:37:53.627Z,21.90
2023-05-05T04:38:53.598Z,18.20
2023-05-05T04:39:53.577Z,19.20
2023-05-05T04:40:53.965Z,18.10
2023-05-05T04:41:53.552Z,18.80
2023-05-05T04:42:57.580Z,16.50
2023-05-05T04:43:53.539Z,18.80
2023-05-05T04:44:53.667Z,18.60
2023-05-05T04:45:53.550Z,17.50
2023-05-05T04:46:53.612Z,17.40
2023-05-05T04:47:53.726Z,20.00
2023-05-05T04:48:53.480Z,20.80
2023-05-05T04:49:53.496Z,20.60
2023-05-05T04:50:53.609Z,17.70
2023-05-05T04:51:53.435Z,18.00
2023-05-05T04:52:53.457Z,21.00
2023-05-05T04:53:53.425Z,22.30
2023-05-05T04:54:53.592Z,23.50
2023-05-05T04:55:55.317Z,19.30
2023-05-05T04:56:53.966Z,21.00
2023-05-05T04:57:53.509Z,22.00
2023-05-05T04:58:53.451Z,19.80
2023-05-05T04:59:53.378Z,25.40
2023-05-05T05:00:53.577Z,26.00
2023-05-05T05:01:53.401Z,26.20
2023-05-05T05:02:53.499Z,23.90
2023-05-05T05:03:53.574Z,22.60
2023-05-05T05:04:53.357Z,23.30
2023-05-05T05:05:53.335Z,22.60
2023-05-05T05:06:53.318Z,24.20
2023-05-05T05:07:53.345Z,22.50
2023-05-05T05:08:53.267Z,23.80
2023-05-05T05:09:53.474Z,24.90
2023-05-05T05:10:53.249Z,26.10
2023-05-05T05:11:53.318Z,24.60
2023-05-05T05:12:53.231Z,24.20
2023-05-05T05:13:53.243Z,23.10
2023-05-05T05:14:53.368Z,22.10
2023-05-05T05:15:53.224Z,25.90
2023-05-05T05:16:53.245Z,25.00
2023-05-05T05:17:53.205Z,25.40
2023-05-05T05:18:53.137Z,25.00
2023-05-05T05:19:53.148Z,23.80
2023-05-05T05:20:53.141Z,26.50
2023-05-05T05:21:53.337Z,26.20
2023-05-05T05:22:53.130Z,24.90
2023-05-05T05:23:53.386Z,24.90
2023-05-05T05:24:53.074Z,25.50
2023-05-05T05:25:53.099Z,27.20
2023-05-05T05:26:53.054Z,25.20
2023-05-05T05:28:06.147Z,27.90
2023-05-05T05:28:53.060Z,24.90
2023-05-05T05:29:53.030Z,26.80
2023-05-05T05:30:53.065Z,24.70
2023-05-05T05:31:53.086Z,24.10
2023-05-05T05:32:53.233Z,25.50
2023-05-05T05:33:53.161Z,22.90
2023-05-05T05:34:53.005Z,28.10
2023-05-05T05:35:53.378Z,25.90
2023-05-05T05:36:52.960Z,25.10
2023-05-05T05:37:53.014Z,26.20
2023-05-05T05:38:52.935Z,25.30
2023-05-05T05:39:53.153Z,24.00
2023-05-05T05:40:52.901Z,23.40
2023-05-05T05:41:52.912Z,29.40
2023-05-05T05:42:52.895Z,26.10
2023-05-05T05:43:52.925Z,25.50
2023-05-05T05:44:52.857Z,25.80
2023-05-05T05:45:52.959Z,24.10
2023-05-05T05:46:52.835Z,26.30
2023-05-05T05:47:52.891Z,26.70
2023-05-05T05:48:53.278Z,24.10
2023-05-05T05:49:52.802Z,24.20
2023-05-05T05:50:52.807Z,24.40
2023-05-05T05:51:52.847Z,25.00
2023-05-05T05:52:52.845Z,23.90
2023-05-05T05:53:52.785Z,23.50
2023-05-05T05:54:52.757Z,25.50
2023-05-05T05:55:52.816Z,24.50
2023-05-05T05:56:52.776Z,23.60
2023-05-05T05:57:52.763Z,25.60
2023-05-05T05:58:52.907Z,24.90
2023-05-05T05:59:52.726Z,25.50
2023-05-05T06:00:52.689Z,24.80
2023-05-05T06:01:52.738Z,28.80
2023-05-05T06:02:52.786Z,25.30
2023-05-05T06:03:52.903Z,25.60
2023-05-05T06:04:52.669Z,24.80
2023-05-05T06:05:52.704Z,23.40
2023-05-05T06:06:52.736Z,22.70
2023-05-05T06:07:52.629Z,22.60
2023-05-05T06:08:52.616Z,24.90
2023-05-05T06:09:52.662Z,23.10
2023-05-05T06:10:52.635Z,21.90
2023-05-05T06:11:52.573Z,22.10
2023-05-05T06:12:52.720Z,22.40
2023-05-05T06:13:52.571Z,21.80
2023-05-05T06:14:52.534Z,22.60
2023-05-05T06:15:52.565Z,22.60
2023-05-05T06:16:53.363Z,23.00
2023-05-05T06:17:52.542Z,22.20
2023-05-05T06:18:52.497Z,22.60
2023-05-05T06:19:54.437Z,23.90
2023-05-05T06:20:52.527Z,21.30
2023-05-05T06:21:52.493Z,24.50
2023-05-05T06:22:52.455Z,20.50
2023-05-05T06:23:52.453Z,20.80
2023-05-05T06:24:52.458Z,20.60
2023-05-05T06:25:52.466Z,23.20
2023-05-05T06:26:52.399Z,21.40
2023-05-05T06:27:52.439Z,20.10
2023-05-05T06:28:52.386Z,22.00
2023-05-05T06:29:52.409Z,27.30
2023-05-05T06:30:52.381Z,26.70
2023-05-05T06:31:52.500Z,25.30
2023-05-05T06:32:52.338Z,22.50
2023-05-05T06:33:52.386Z,26.30
2023-05-05T06:34:52.399Z,22.60
2023-05-05T06:35:52.319Z,23.30
2023-05-05T06:36:52.428Z,23.40
2023-05-05T06:37:52.296Z,17.60
2023-05-05T06:38:52.321Z,15.50
2023-05-05T06:39:52.301Z,17.70
2023-05-05T06:40:52.277Z,17.20
2023-05-05T06:41:52.255Z,19.70
2023-05-05T06:42:52.236Z,16.10
2023-05-05T06:43:52.256Z,16.30
2023-05-05T06:44:52.262Z,15.00
2023-05-05T06:45:52.305Z,15.70
2023-05-05T06:46:52.234Z,13.50
2023-05-05T06:47:52.380Z,15.30
2023-05-05T06:48:52.217Z,14.80
2023-05-05T06:49:52.241Z,14.70
2023-05-05T06:50:52.169Z,14.50
2023-05-05T06:51:52.142Z,13.50
2023-05-05T06:52:52.214Z,13.30
2023-05-05T06:53:52.200Z,14.10
2023-05-05T06:54:52.130Z,13.30
2023-05-05T06:55:52.133Z,15.80
2023-05-05T06:56:52.078Z,14.20
2023-05-05T06:57:52.159Z,14.30
2023-05-05T06:58:52.127Z,13.80
2023-05-05T06:59:52.080Z,11.60
2023-05-05T07:00:52.093Z,12.80
2023-05-05T07:01:52.083Z,14.30
2023-05-05T07:02:52.909Z,12.90
2023-05-05T07:03:52.069Z,12.20
2023-05-05T07:04:52.045Z,12.20
2023-05-05T07:05:52.094Z,13.60
2023-05-05T07:06:52.889Z,12.00
2023-05-05T07:07:52.055Z,12.60
2023-05-05T07:08:52.003Z,10.20
2023-05-05T07:09:51.990Z,11.10
2023-05-05T07:10:51.949Z,9.80
2023-05-05T07:11:51.981Z,11.10
2023-05-05T07:12:51.981Z,10.90
2023-05-05T07:13:51.947Z,10.90
2023-05-05T07:14:51.988Z,11.40
2023-05-05T07:15:51.970Z,10.80
2023-05-05T07:16:51.935Z,12.20
2023-05-05T07:17:52.023Z,10.10
2023-05-05T07:18:51.880Z,12.20
2023-05-05T07:19:51.869Z,13.10
2023-05-05T07:20:51.880Z,11.80
2023-05-05T07:21:51.899Z,12.40
2023-05-05T07:22:51.921Z,12.90
2023-05-05T07:23:52.031Z,12.20
2023-05-05T07:24:51.822Z,10.50
2023-05-05T07:25:51.813Z,12.70
2023-05-05T07:26:51.817Z,12.90
2023-05-05T07:27:51.809Z,11.50
2023-05-05T07:28:51.774Z,10.90
2023-05-05T07:29:51.734Z,10.50
2023-05-05T07:30:51.775Z,9.60
2023-05-05T07:31:51.861Z,12.80
2023-05-05T07:32:51.889Z,12.60
2023-05-05T07:33:51.708Z,14.00
2023-05-05T07:34:51.680Z,13.80
2023-05-05T07:35:51.716Z,13.80
2023-05-05T07:36:51.781Z,9.90
2023-05-05T07:37:51.669Z,12.80
2023-05-05T07:38:51.708Z,12.50
2023-05-05T07:39:51.674Z,12.50
2023-05-05T07:40:52.273Z,10.90
2023-05-05T07:41:51.715Z,12.40
2023-05-05T07:42:51.609Z,11.80
2023-05-05T07:43:51.598Z,9.20
2023-05-05T07:44:51.648Z,24.20
2023-05-05T07:45:52.434Z,10.70
2023-05-05T07:46:51.571Z,13.30
2023-05-05T07:47:51.637Z,11.20
2023-05-05T07:48:51.597Z,12.90
2023-05-05T07:49:51.570Z,11.40
2023-05-05T07:50:51.529Z,10.30
2023-05-05T07:51:51.525Z,11.50
2023-05-05T07:52:56.349Z,13.70
2023-05-05T07:53:51.536Z,13.00
2023-05-05T07:54:51.544Z,11.50
2023-05-05T07:55:51.493Z,12.40
2023-05-05T07:56:51.454Z,13.00
2023-05-05T07:57:51.429Z,11.30
2023-05-05T07:58:51.465Z,11.90
2023-05-05T07:59:51.476Z,11.40
2023-05-05T08:00:51.411Z,12.90
2023-05-05T08:01:53.130Z,14.80
2023-05-05T08:02:51.517Z,13.60
2023-05-05T08:03:51.463Z,12.80
2023-05-05T08:04:51.389Z,14.20
2023-05-05T08:05:51.835Z,12.30
2023-05-05T08:06:51.339Z,11.60
2023-05-05T08:07:51.374Z,12.80
2023-05-05T08:08:51.329Z,14.10
2023-05-05T08:09:51.319Z,15.20
2023-05-05T08:10:51.316Z,14.30
2023-05-05T08:11:51.303Z,13.60
2023-05-05T08:12:51.362Z,13.50
2023-05-05T08:13:51.291Z,14.60
2023-05-05T08:14:51.281Z,13.50
2023-05-05T08:15:51.288Z,15.90
2023-05-05T08:16:51.225Z,14.70
2023-05-05T08:17:51.515Z,13.30
2023-05-05T08:18:51.230Z,14.90
2023-05-05T08:19:51.230Z,13.10
2023-05-05T08:20:51.285Z,12.60
2023-05-05T08:21:51.194Z,13.80
2023-05-05T08:22:51.230Z,12.50
2023-05-05T08:23:51.182Z,13.30
2023-05-05T08:24:51.161Z,13.40
2023-05-05T08:25:51.231Z,14.00
2023-05-05T08:26:51.164Z,13.50
2023-05-05T08:27:51.207Z,15.10
2023-05-05T08:28:51.134Z,12.00
2023-05-05T08:29:51.107Z,14.30
2023-05-05T08:30:51.095Z,14.30
2023-05-05T08:31:51.173Z,14.60
2023-05-05T08:32:51.119Z,15.10
2023-05-05T08:33:51.069Z,13.90
2023-05-05T08:34:51.059Z,16.60
2023-05-05T08:35:51.087Z,12.70
2023-05-05T08:36:51.055Z,12.90
2023-05-05T08:37:51.343Z,13.50
2023-05-05T08:38:51.031Z,13.10
2023-05-05T08:39:51.015Z,13.10
2023-05-05T08:40:51.058Z,12.10
2023-05-05T08:41:51.004Z,11.70
2023-05-05T08:42:50.979Z,14.80
2023-05-05T08:43:50.959Z,11.70
2023-05-05T08:44:50.989Z,13.40
2023-05-05T08:45:50.959Z,13.30
2023-05-05T08:46:51.029Z,14.80
2023-05-05T08:47:50.977Z,16.30
2023-05-05T08:48:50.938Z,14.30
2023-05-05T08:49:50.901Z,11.70
2023-05-05T08:50:51.116Z,14.30
2023-05-05T08:51:50.865Z,12.60
2023-05-05T08:52:51.344Z,10.30
2023-05-05T08:53:50.941Z,13.70
2023-05-05T08:54:50.841Z,13.40
2023-05-05T08:55:50.852Z,10.80
2023-05-05T08:56:50.834Z,9.80
2023-05-05T08:57:50.804Z,12.50
2023-05-05T08:58:50.868Z,9.60
2023-05-05T08:59:50.848Z,10.10
2023-05-05T09:00:50.900Z,10.10
2023-05-05T09:01:50.871Z,11.40
2023-05-05T09:02:50.942Z,9.90
2023-05-05T09:03:50.757Z,9.30
2023-05-05T09:04:50.929Z,11.30
2023-05-05T09:05:50.790Z,10.20
2023-05-05T09:06:51.400Z,9.80
2023-05-05T09:07:50.952Z,11.70
2023-05-05T09:08:50.845Z,9.70
2023-05-05T09:09:50.712Z,9.70
2023-05-05T09:10:50.733Z,11.70
2023-05-05T09:11:50.737Z,10.40
2023-05-05T09:12:51.670Z,10.50
2023-05-05T09:13:50.661Z,10.80
2023-05-05T09:14:50.645Z,9.30
2023-05-05T09:15:50.631Z,10.80
2023-05-05T09:16:50.696Z,11.50
2023-05-05T09:17:50.695Z,13.80
2023-05-05T09:18:50.630Z,10.00
2023-05-05T09:19:50.652Z,10.40
2023-05-05T09:20:50.681Z,8.30
2023-05-05T09:21:50.658Z,11.30
2023-05-05T09:22:50.644Z,10.00
2023-05-05T09:23:50.546Z,8.80
2023-05-05T09:24:50.595Z,11.00
2023-05-05T09:25:50.552Z,9.00
2023-05-05T09:26:50.550Z,9.30
2023-05-05T09:27:50.827Z,9.30
2023-05-05T09:28:50.509Z,7.00
2023-05-05T09:29:50.571Z,11.10
2023-05-05T09:30:52.703Z,11.30
2023-05-05T09:31:50.695Z,6.70
2023-05-05T09:32:50.531Z,6.90
2023-05-05T09:33:50.449Z,7.50
2023-05-05T09:34:51.240Z,8.50
2023-05-05T09:35:50.443Z,8.20
2023-05-05T09:36:51.447Z,12.30
2023-05-05T09:37:50.505Z,8.40
2023-05-05T09:38:50.470Z,8.90
2023-05-05T09:39:50.475Z,8.90
2023-05-05T09:40:50.366Z,6.90
2023-05-05T09:41:50.333Z,10.10
2023-05-05T09:42:50.446Z,6.10
2023-05-05T09:43:50.374Z,8.00
2023-05-05T09:44:50.397Z,9.90
2023-05-05T09:45:50.348Z,8.40
2023-05-05T09:46:50.782Z,7.90
2023-05-05T09:47:50.588Z,7.50
2023-05-05T09:48:50.559Z,8.70
2023-05-05T09:49:50.348Z,6.80
2023-05-05T09:50:50.288Z,7.40
2023-05-05T09:51:50.300Z,5.90
2023-05-05T09:52:50.282Z,7.00
2023-05-05T09:53:50.236Z,6.00
2023-05-05T09:54:50.236Z,6.90
2023-05-05T09:55:50.359Z,6.40
2023-05-05T09:56:50.212Z,8.70
2023-05-05T09:57:50.357Z,9.60
2023-05-05T09:58:50.237Z,7.70
2023-05-05T09:59:50.196Z,6.40
2023-05-05T10:00:50.159Z,7.40
2023-05-05T10:01:50.221Z,6.20
2023-05-05T10:02:50.158Z,5.40
2023-05-05T10:03:50.177Z,5.60
2023-05-05T10:04:50.182Z,5.00
2023-05-05T10:05:50.213Z,5.40
2023-05-05T10:06:50.245Z,5.70
2023-05-05T10:07:50.124Z,9.20
2023-05-05T10:08:50.107Z,7.90
2023-05-05T10:09:50.239Z,5.60
2023-05-05T10:10:50.142Z,6.80
2023-05-05T10:11:50.136Z,6.30
2023-05-05T10:12:50.130Z,7.00
2023-05-05T10:13:50.064Z,6.10
2023-05-05T10:14:50.085Z,6.80
2023-05-05T10:15:50.122Z,6.50
2023-05-05T10:16:50.040Z,5.60
2023-05-05T10:18:06.062Z,7.10
2023-05-05T10:18:50.150Z,7.20
2023-05-05T10:19:49.996Z,7.20
2023-05-05T10:20:50.054Z,7.20
2023-05-05T10:21:50.097Z,6.20
2023-05-05T10:22:50.000Z,7.20
2023-05-05T10:23:50.128Z,7.30
2023-05-05T10:24:49.956Z,9.60
2023-05-05T10:25:49.924Z,6.90
2023-05-05T10:26:50.035Z,8.80
2023-05-05T10:27:49.880Z,8.70
2023-05-05T10:28:49.885Z,6.80
2023-05-05T10:29:49.913Z,7.90
2023-05-05T10:30:49.866Z,5.70
2023-05-05T10:31:49.938Z,10.10
2023-05-05T10:32:54.410Z,6.40
2023-05-05T10:33:50.070Z,10.40
2023-05-05T10:34:49.801Z,9.10
2023-05-05T10:35:49.792Z,5.90
2023-05-05T10:36:49.815Z,6.90
2023-05-05T10:37:49.818Z,8.20
2023-05-05T10:38:49.771Z,6.50
2023-05-05T10:39:49.718Z,8.50
2023-05-05T10:40:49.746Z,6.30
2023-05-05T10:41:49.879Z,7.80
2023-05-05T10:42:49.848Z,6.90
2023-05-05T10:43:49.704Z,7.80
2023-05-05T10:44:49.718Z,5.90
2023-05-05T10:45:49.811Z,9.20
2023-05-05T10:46:49.739Z,5.00
2023-05-05T10:47:49.776Z,7.60
2023-05-05T10:48:49.696Z,5.20
2023-05-05T10:49:50.381Z,6.30
2023-05-05T10:50:49.643Z,4.00
2023-05-05T10:51:49.669Z,6.20
2023-05-05T10:52:49.785Z,5.40
2023-05-05T10:53:49.665Z,5.60
2023-05-05T10:54:49.744Z,6.30
2023-05-05T10:55:49.592Z,5.90
2023-05-05T10:56:49.645Z,5.10
2023-05-05T10:57:49.662Z,6.50
2023-05-05T10:58:59.848Z,7.20
2023-05-05T10:59:49.597Z,5.90
2023-05-05T11:00:49.610Z,6.10
2023-05-05T11:01:49.651Z,5.20
2023-05-05T11:02:49.597Z,6.00
2023-05-05T11:03:49.644Z,6.20
2023-05-05T11:04:49.558Z,4.50
2023-05-05T11:05:49.566Z,5.30
2023-05-05T11:06:49.481Z,7.30
2023-05-05T11:07:49.573Z,4.90
2023-05-05T11:08:49.492Z,5.60
2023-05-05T11:09:49.463Z,6.20
2023-05-05T11:10:49.463Z,6.30
2023-05-05T11:12:10.421Z,8.10
2023-05-05T11:12:49.429Z,7.00
2023-05-05T11:13:50.083Z,5.00
2023-05-05T11:14:49.475Z,6.50
2023-05-05T11:15:49.426Z,6.70
2023-05-05T11:16:49.392Z,5.10
2023-05-05T11:17:49.563Z,7.00
2023-05-05T11:18:49.438Z,6.20
2023-05-05T11:19:49.372Z,7.10
2023-05-05T11:20:49.380Z,7.00
2023-05-05T11:21:49.424Z,5.00
2023-05-05T11:22:49.299Z,7.10
2023-05-05T11:23:49.480Z,8.20
2023-05-05T11:24:49.347Z,5.90
2023-05-05T11:25:49.330Z,4.60
2023-05-05T11:26:49.248Z,6.00
2023-05-05T11:27:49.310Z,6.10
2023-05-05T11:28:49.263Z,5.30
2023-05-05T11:29:51.924Z,6.30
2023-05-05T11:30:49.233Z,6.60
2023-05-05T11:31:49.215Z,5.50
2023-05-05T11:32:49.259Z,7.00
2023-05-05T11:33:49.422Z,5.80
2023-05-05T11:34:49.177Z,6.40
2023-05-05T11:35:49.188Z,6.90
2023-05-05T11:36:49.150Z,5.40
2023-05-05T11:37:49.180Z,6.80
2023-05-05T11:38:49.156Z,5.10
2023-05-05T11:39:49.110Z,4.90
2023-05-05T11:40:49.157Z,4.80
2023-05-05T11:41:49.112Z,7.60
2023-05-05T11:42:49.106Z,6.00
2023-05-05T11:43:49.080Z,7.50
2023-05-05T11:44:49.121Z,6.00
2023-05-05T11:45:49.110Z,6.10
2023-05-05T11:46:49.062Z,8.00
2023-05-05T11:47:49.179Z,6.30
2023-05-05T11:48:49.018Z,8.40
2023-05-05T11:49:49.021Z,7.40
2023-05-05T11:50:49.051Z,5.10
2023-05-05T11:51:49.017Z,5.10
2023-05-05T11:52:48.996Z,6.10
2023-05-05T11:53:48.982Z,6.50
2023-05-05T11:54:49.020Z,6.20
2023-05-05T11:55:49.027Z,6.80
2023-05-05T11:56:48.968Z,4.20
2023-05-05T11:57:48.984Z,4.10
2023-05-05T11:58:48.962Z,6.90
2023-05-05T11:59:49.653Z,6.30
2023-05-05T12:00:48.890Z,6.60
2023-05-05T12:01:48.902Z,5.00
2023-05-05T12:02:49.002Z,4.80
2023-05-05T12:03:49.099Z,4.40
2023-05-05T12:04:49.066Z,3.50
2023-05-05T12:05:48.848Z,5.80
2023-05-05T12:06:48.847Z,4.50
2023-05-05T12:07:48.949Z,6.10
2023-05-05T12:08:48.930Z,5.00
2023-05-05T12:09:49.219Z,3.90
2023-05-05T12:10:48.809Z,3.90
2023-05-05T12:11:48.793Z,6.70
2023-05-05T12:12:48.779Z,5.10
2023-05-05T12:13:48.840Z,4.40
2023-05-05T12:14:48.732Z,5.00
2023-05-05T12:15:48.773Z,3.90
2023-05-05T12:16:48.925Z,7.80
2023-05-05T12:17:48.826Z,7.10
2023-05-05T12:18:48.740Z,4.80
2023-05-05T12:19:48.744Z,4.50
2023-05-05T12:20:48.715Z,6.40
2023-05-05T12:21:49.093Z,6.50
2023-05-05T12:22:48.638Z,4.40
2023-05-05T12:23:48.680Z,4.50
2023-05-05T12:24:48.723Z,5.30
2023-05-05T12:25:48.649Z,4.90
2023-05-05T12:26:48.640Z,6.80
2023-05-05T12:27:48.617Z,4.30
2023-05-05T12:28:48.689Z,3.50
2023-05-05T12:29:48.666Z,5.90
2023-05-05T12:30:48.659Z,6.10
2023-05-05T12:31:48.655Z,5.60
2023-05-05T12:32:48.594Z,5.30
2023-05-05T12:33:48.591Z,5.70
2023-05-05T12:34:48.561Z,7.60
2023-05-05T12:35:48.551Z,4.20
2023-05-05T12:36:48.570Z,7.00
2023-05-05T12:37:48.526Z,8.70
2023-05-05T12:38:48.551Z,6.40
2023-05-05T12:39:48.524Z,8.50
2023-05-05T12:40:48.724Z,6.80
2023-05-05T12:41:48.619Z,5.60
2023-05-05T12:42:48.510Z,7.30
2023-05-05T12:43:48.542Z,5.60
2023-05-05T12:44:48.500Z,8.00
2023-05-05T12:45:48.753Z,7.30
2023-05-05T12:46:48.452Z,4.80
2023-05-05T12:47:48.468Z,6.00
2023-05-05T12:48:48.644Z,6.60
2023-05-05T12:49:48.467Z,7.60
2023-05-05T12:50:48.621Z,7.70
2023-05-05T12:51:48.403Z,5.60
2023-05-05T12:52:48.351Z,5.80
2023-05-05T12:53:48.472Z,7.50
2023-05-05T12:54:48.393Z,10.10
2023-05-05T12:55:48.646Z,8.00
2023-05-05T12:56:48.346Z,4.70
2023-05-05T12:57:48.293Z,7.90
2023-05-05T12:58:48.332Z,8.00
2023-05-05T12:59:48.373Z,7.30
2023-05-05T13:00:48.406Z,7.10